createdAt,value
2023-05-17T00:00:34.725Z,12.26
2023-05-17T00:01:50.936Z,12.26
2023-05-17T00:02:53.817Z,12.27
2023-05-17T00:03:56.938Z,12.24
2023-05-17T00:04:59.717Z,12.24
2023-05-17T00:06:02.536Z,12.23
2023-05-17T00:07:05.318Z,12.21
2023-05-17T00:08:08.113Z,12.21
2023-05-17T00:09:11.088Z,12.23
2023-05-17T00:10:13.886Z,12.23
2023-05-17T00:11:16.780Z,12.22
2023-05-17T00:12:19.530Z,12.21
2023-05-17T00:13:22.368Z,12.23
2023-05-17T00:14:25.222Z,12.22
2023-05-17T00:15:28.293Z,12.22
2023-05-17T00:16:31.202Z,12.23
2023-05-17T00:17:34.236Z,12.22
2023-05-17T00:18:37.204Z,12.22
2023-05-17T00:19:40.077Z,12.23
2023-05-17T00:20:42.925Z,12.22
2023-05-17T00:21:45.944Z,12.23
2023-05-17T00:22:48.853Z,12.21
2023-05-17T00:23:51.684Z,12.21
2023-05-17T00:24:54.512Z,12.19
2023-05-17T00:25:57.201Z,12.20
2023-05-17T00:26:59.914Z,12.22
2023-05-17T00:28:02.661Z,12.21
2023-05-17T00:29:05.531Z,12.21
2023-05-17T00:30:08.488Z,12.21
2023-05-17T00:31:12.805Z,12.20
2023-05-17T00:32:16.035Z,12.21
2023-05-17T00:33:18.850Z,12.23
2023-05-17T00:34:22.311Z,12.24
2023-05-17T00:35:25.596Z,12.21
2023-05-17T00:36:28.512Z,12.19
2023-05-17T00:37:31.251Z,12.23
2023-05-17T00:38:34.083Z,12.24
2023-05-17T00:39:37.627Z,12.22
2023-05-17T00:40:40.495Z,12.22
2023-05-17T00:41:43.494Z,12.24
2023-05-17T00:42:46.268Z,12.25
2023-05-17T00:43:49.223Z,12.23
2023-05-17T00:44:51.976Z,12.22
2023-05-17T00:45:54.832Z,12.20
2023-05-17T00:46:59.804Z,12.19
2023-05-17T00:48:02.901Z,12.21
2023-05-17T00:49:05.846Z,12.21
2023-05-17T00:50:08.842Z,12.24
2023-05-17T00:51:12.049Z,12.22
2023-05-17T00:52:14.883Z,12.23
2023-05-17T00:53:18.051Z,12.24
2023-05-17T00:54:21.452Z,12.22
2023-05-17T00:55:24.390Z,12.23
2023-05-17T00:56:27.923Z,12.23
2023-05-17T00:57:32.150Z,12.23
2023-05-17T00:58:37.492Z,12.22
2023-05-17T00:59:42.331Z,12.21
2023-05-17T01:00:46.011Z,12.21
2023-05-17T01:01:48.762Z,12.18
2023-05-17T01:02:51.774Z,12.17
2023-05-17T01:03:54.661Z,12.19
2023-05-17T01:04:57.574Z,12.21
2023-05-17T01:06:00.530Z,12.20
2023-05-17T01:07:03.485Z,12.21
2023-05-17T01:08:06.245Z,12.21
2023-05-17T01:09:09.405Z,12.21
2023-05-17T01:10:12.476Z,12.22
2023-05-17T01:11:24.183Z,12.23
2023-05-17T01:12:33.201Z,12.20
2023-05-17T01:13:42.345Z,12.20
2023-05-17T01:15:11.577Z,12.20
2023-05-17T01:16:22.842Z,12.21
2023-05-17T01:17:31.957Z,12.22
2023-05-17T01:18:46.816Z,12.22
2023-05-17T01:20:08.393Z,12.20
2023-05-17T01:21:31.651Z,12.22
2023-05-17T01:22:47.945Z,12.21
2023-05-17T01:24:11.514Z,12.20
2023-05-17T01:25:40.646Z,12.20
2023-05-17T01:26:44.278Z,12.21
2023-05-17T01:27:49.425Z,12.21
2023-05-17T01:28:53.618Z,12.20
2023-05-17T01:29:58.232Z,12.20
2023-05-17T01:32:53.733Z,12.19
2023-05-17T01:33:58.830Z,12.19
2023-05-17T01:35:04.700Z,12.19
2023-05-17T01:36:08.387Z,12.17
2023-05-17T01:37:11.419Z,12.18
2023-05-17T01:38:14.150Z,12.18
2023-05-17T01:39:16.873Z,12.18
2023-05-17T01:40:20.599Z,12.17
2023-05-17T01:41:29.561Z,12.16
2023-05-17T01:42:33.133Z,12.17
2023-05-17T01:43:41.727Z,12.16
2023-05-17T01:44:50.773Z,12.16
2023-05-17T01:46:01.893Z,12.17
2023-05-17T01:47:21.022Z,12.16
2023-05-17T01:48:28.536Z,12.15
2023-05-17T01:49:37.653Z,12.14
2023-05-17T01:50:41.783Z,12.14
2023-05-17T01:51:49.578Z,12.13
2023-05-17T01:53:10.713Z,12.13
2023-05-17T01:54:21.995Z,12.14
2023-05-17T01:55:27.279Z,12.12
2023-05-17T01:56:34.142Z,12.09
2023-05-17T01:57:37.459Z,12.10
2023-05-17T01:58:45.216Z,12.09
2023-05-17T01:59:49.559Z,12.07
2023-05-17T02:00:56.501Z,12.06
2023-05-17T02:02:06.385Z,12.05
2023-05-17T02:03:12.649Z,12.03
2023-05-17T02:04:15.602Z,12.02
2023-05-17T02:05:18.612Z,12.01
2023-05-17T02:06:21.459Z,12.00
2023-05-17T02:07:24.220Z,11.96
2023-05-17T02:08:27.011Z,11.94
2023-05-17T02:09:30.092Z,11.93
2023-05-17T02:10:32.912Z,11.91
2023-05-17T02:11:36.412Z,11.91
2023-05-17T02:12:39.941Z,11.90
2023-05-17T02:13:42.687Z,11.87
2023-05-17T02:14:45.656Z,11.84
2023-05-17T02:15:48.456Z,11.84
2023-05-17T02:16:51.285Z,11.84
2023-05-17T02:17:54.100Z,11.83
2023-05-17T02:18:56.968Z,11.83
2023-05-17T02:19:59.804Z,11.82
2023-05-17T02:21:04.077Z,11.82
2023-05-17T02:22:06.842Z,11.83
2023-05-17T02:23:09.622Z,11.82
2023-05-17T02:24:12.376Z,11.82
2023-05-17T02:25:15.240Z,11.83
2023-05-17T02:26:17.982Z,11.84
2023-05-17T02:27:20.782Z,11.83
2023-05-17T02:28:23.567Z,11.84
2023-05-17T02:29:26.325Z,11.84
2023-05-17T02:30:29.099Z,11.84
2023-05-17T02:31:32.685Z,11.83
2023-05-17T02:32:35.573Z,11.83
2023-05-17T02:33:38.557Z,11.83
2023-05-17T02:34:41.407Z,11.84
2023-05-17T02:35:44.181Z,11.83
2023-05-17T02:36:48.481Z,11.82
2023-05-17T02:37:52.061Z,11.83
2023-05-17T02:38:55.561Z,11.82
2023-05-17T02:39:58.371Z,11.81
2023-05-17T02:41:01.116Z,11.82
2023-05-17T02:42:03.948Z,11.83
2023-05-17T02:43:06.690Z,11.82
2023-05-17T02:44:12.383Z,11.84
2023-05-17T02:45:15.195Z,11.84
2023-05-17T02:46:18.045Z,11.84
2023-05-17T02:47:23.853Z,11.85
2023-05-17T02:48:26.696Z,11.84
2023-05-17T02:49:29.598Z,11.84
2023-05-17T02:50:32.336Z,11.84
2023-05-17T02:51:35.449Z,11.84
2023-05-17T02:52:40.805Z,11.84
2023-05-17T02:53:43.762Z,11.84
2023-05-17T02:54:47.837Z,11.85
2023-05-17T02:55:51.538Z,11.86
2023-05-17T02:56:54.299Z,11.84
2023-05-17T02:57:57.118Z,11.84
2023-05-17T02:59:01.383Z,11.84
2023-05-17T03:00:06.090Z,11.86
2023-05-17T03:01:09.617Z,11.86
2023-05-17T03:02:12.444Z,11.86
2023-05-17T03:03:15.452Z,11.87
2023-05-17T03:04:20.302Z,11.86
2023-05-17T03:05:23.463Z,11.85
2023-05-17T03:06:27.841Z,11.85
2023-05-17T03:07:30.827Z,11.86
2023-05-17T03:08:33.779Z,11.86
2023-05-17T03:09:37.608Z,11.86
2023-05-17T03:10:40.770Z,11.87
2023-05-17T03:11:44.450Z,11.88
2023-05-17T03:12:53.702Z,11.89
2023-05-17T03:13:58.536Z,11.87
2023-05-17T03:15:04.311Z,11.87
2023-05-17T03:16:08.072Z,11.87
2023-05-17T03:17:10.892Z,11.88
2023-05-17T03:18:14.759Z,11.87
2023-05-17T03:19:18.590Z,11.87
2023-05-17T03:20:21.867Z,11.87
2023-05-17T03:21:24.867Z,11.87
2023-05-17T03:22:28.230Z,11.88
2023-05-17T03:23:31.348Z,11.89
2023-05-17T03:24:35.988Z,11.87
2023-05-17T03:25:38.962Z,11.87
2023-05-17T03:26:41.833Z,11.89
2023-05-17T03:27:46.617Z,11.90
2023-05-17T03:28:51.273Z,11.90
2023-05-17T03:29:54.936Z,11.90
2023-05-17T03:30:59.494Z,11.88
2023-05-17T03:32:06.522Z,11.88
2023-05-17T03:33:09.625Z,11.87
2023-05-17T03:34:12.490Z,11.87
2023-05-17T03:35:15.870Z,11.86
2023-05-17T03:36:21.924Z,11.84
2023-05-17T03:37:24.924Z,11.87
2023-05-17T03:38:27.805Z,11.87
2023-05-17T03:39:31.327Z,11.85
2023-05-17T03:40:34.104Z,11.83
2023-05-17T03:41:37.249Z,11.82
2023-05-17T03:42:40.257Z,11.81
2023-05-17T03:43:43.183Z,11.80
2023-05-17T03:44:47.876Z,11.78
2023-05-17T03:45:50.785Z,11.77
2023-05-17T03:46:54.441Z,11.75
2023-05-17T03:47:58.799Z,11.73
2023-05-17T03:49:03.082Z,11.73
2023-05-17T03:50:07.803Z,11.72
2023-05-17T03:51:10.990Z,11.70
2023-05-17T03:52:14.034Z,11.69
2023-05-17T03:53:16.881Z,11.70
2023-05-17T03:54:19.631Z,11.70
2023-05-17T03:55:22.556Z,11.69
2023-05-17T03:56:28.290Z,11.68
2023-05-17T03:57:31.073Z,11.67
2023-05-17T03:58:33.899Z,11.66
2023-05-17T03:59:36.782Z,11.67
2023-05-17T04:00:41.172Z,11.66
2023-05-17T04:01:46.666Z,11.68
2023-05-17T04:02:51.041Z,11.70
2023-05-17T04:03:54.157Z,11.68
2023-05-17T04:04:57.391Z,11.68
2023-05-17T04:06:01.448Z,11.69
2023-05-17T04:07:04.216Z,11.70
2023-05-17T04:08:07.090Z,11.71
2023-05-17T04:09:11.125Z,11.72
2023-05-17T04:10:15.380Z,11.74
2023-05-17T04:11:23.616Z,11.72
2023-05-17T04:12:26.529Z,11.70
2023-05-17T04:13:29.574Z,11.71
2023-05-17T04:14:32.458Z,11.72
2023-05-17T04:15:35.755Z,11.72
2023-05-17T04:16:38.891Z,11.69
2023-05-17T04:17:41.905Z,11.67
2023-05-17T04:18:45.877Z,11.69
2023-05-17T04:19:49.054Z,11.69
2023-05-17T04:20:51.919Z,11.71
2023-05-17T04:21:54.965Z,11.71
2023-05-17T04:22:58.408Z,11.71
2023-05-17T04:24:02.424Z,11.71
2023-05-17T04:25:05.677Z,11.72
2023-05-17T04:26:09.101Z,11.71
2023-05-17T04:27:14.511Z,11.71
2023-05-17T04:28:18.205Z,11.73
2023-05-17T04:29:21.382Z,11.75
2023-05-17T04:30:24.992Z,11.78
2023-05-17T04:31:27.859Z,11.81
2023-05-17T04:32:30.718Z,11.82
2023-05-17T04:33:33.825Z,11.84
2023-05-17T04:34:36.723Z,11.87
2023-05-17T04:35:41.842Z,11.90
2023-05-17T04:36:44.787Z,11.92
2023-05-17T04:37:47.654Z,11.94
2023-05-17T04:38:58.027Z,11.95
2023-05-17T04:40:03.500Z,11.98
2023-05-17T04:41:07.319Z,12.00
2023-05-17T04:42:12.230Z,12.03
2023-05-17T04:43:18.509Z,12.04
2023-05-17T04:44:22.506Z,12.07
2023-05-17T04:45:25.560Z,12.09
2023-05-17T04:46:28.672Z,12.10
2023-05-17T04:47:31.587Z,12.09
2023-05-17T04:48:34.569Z,12.10
2023-05-17T04:49:37.606Z,12.13
2023-05-17T04:50:40.789Z,12.14
2023-05-17T04:51:43.644Z,12.13
2023-05-17T04:52:47.208Z,12.12
2023-05-17T04:53:49.982Z,12.12
2023-05-17T04:54:53.715Z,12.11
2023-05-17T04:55:59.229Z,12.11
2023-05-17T04:57:03.693Z,12.12
2023-05-17T04:58:32.411Z,12.15
2023-05-17T04:59:35.818Z,12.14
2023-05-17T05:00:38.711Z,12.13
2023-05-17T05:01:42.401Z,12.15
2023-05-17T05:02:45.146Z,12.16
2023-05-17T05:03:48.998Z,12.17
2023-05-17T05:04:52.219Z,12.17
2023-05-17T05:05:55.256Z,12.19
2023-05-17T05:06:58.260Z,12.22
2023-05-17T05:08:01.273Z,12.24
2023-05-17T05:09:04.490Z,12.22
2023-05-17T05:10:11.742Z,12.25
2023-05-17T05:11:14.965Z,12.24
2023-05-17T05:12:18.178Z,12.20
2023-05-17T05:13:21.940Z,12.21
2023-05-17T05:14:24.735Z,12.20
2023-05-17T05:15:27.712Z,12.24
2023-05-17T05:16:33.262Z,12.29
2023-05-17T05:17:36.735Z,12.28
2023-05-17T05:18:39.837Z,12.29
2023-05-17T05:19:43.535Z,12.32
2023-05-17T05:20:48.832Z,12.36
2023-05-17T05:21:52.044Z,12.40
2023-05-17T05:22:55.009Z,12.37
2023-05-17T05:23:57.810Z,12.42
2023-05-17T05:25:01.552Z,12.43
2023-05-17T05:26:04.986Z,12.46
2023-05-17T05:27:08.014Z,12.50
2023-05-17T05:28:12.242Z,12.53
2023-05-17T05:29:16.062Z,12.63
2023-05-17T05:30:22.423Z,12.67
2023-05-17T05:31:26.728Z,12.72
2023-05-17T05:32:30.010Z,12.76
2023-05-17T05:33:33.126Z,12.77
2023-05-17T05:34:36.075Z,12.85
2023-05-17T05:35:39.043Z,12.91
2023-05-17T05:36:43.091Z,12.97
2023-05-17T05:37:46.159Z,13.02
2023-05-17T05:38:49.271Z,13.09
2023-05-17T05:39:52.192Z,13.15
2023-05-17T05:40:55.591Z,13.25
2023-05-17T05:41:58.385Z,13.30
2023-05-17T05:43:01.219Z,13.36
2023-05-17T05:44:04.057Z,13.34
2023-05-17T05:45:07.171Z,13.34
2023-05-17T05:46:10.330Z,13.34
2023-05-17T05:47:13.114Z,13.38
2023-05-17T05:48:15.950Z,13.39
2023-05-17T05:49:19.424Z,13.42
2023-05-17T05:50:22.151Z,13.44
2023-05-17T05:51:25.532Z,13.47
2023-05-17T05:52:28.374Z,13.51
2023-05-17T05:53:31.527Z,13.57
2023-05-17T05:54:35.130Z,13.63
2023-05-17T05:55:42.289Z,13.68
2023-05-17T05:56:45.127Z,13.73
2023-05-17T05:57:48.824Z,13.72
2023-05-17T05:58:51.600Z,13.76
2023-05-17T05:59:54.664Z,13.75
2023-05-17T06:00:57.524Z,13.76
2023-05-17T06:02:00.524Z,13.78
2023-05-17T06:03:03.443Z,13.81
2023-05-17T06:04:06.337Z,13.80
2023-05-17T06:05:09.352Z,13.81
2023-05-17T06:06:12.412Z,13.80
2023-05-17T06:07:15.703Z,13.79
2023-05-17T06:08:18.470Z,13.83
2023-05-17T06:09:21.209Z,13.79
2023-05-17T06:10:24.526Z,13.72
2023-05-17T06:11:27.397Z,13.74
2023-05-17T06:12:30.154Z,13.79
2023-05-17T06:13:32.834Z,13.82
2023-05-17T06:14:37.516Z,13.83
2023-05-17T06:15:40.874Z,13.85
2023-05-17T06:16:43.616Z,13.83
2023-05-17T06:17:46.692Z,13.84
2023-05-17T06:18:51.230Z,13.86
2023-05-17T06:19:55.046Z,13.90
2023-05-17T06:20:57.917Z,13.97
2023-05-17T06:22:00.650Z,14.04
2023-05-17T06:23:05.207Z,14.11
2023-05-17T06:24:08.108Z,14.24
2023-05-17T06:25:13.990Z,14.38
2023-05-17T06:26:16.827Z,14.56
2023-05-17T06:27:19.611Z,14.66
2023-05-17T06:28:22.364Z,14.74
2023-05-17T06:29:25.206Z,14.73
2023-05-17T06:30:28.252Z,14.74
2023-05-17T06:31:31.157Z,14.76
2023-05-17T06:32:33.986Z,14.77
2023-05-17T06:33:36.837Z,14.78
2023-05-17T06:34:40.131Z,14.75
2023-05-17T06:35:55.532Z,14.74
2023-05-17T06:36:59.367Z,14.71
2023-05-17T06:38:02.289Z,14.72
2023-05-17T06:39:04.999Z,14.66
2023-05-17T06:40:16.111Z,14.69
2023-05-17T06:41:19.860Z,14.71
2023-05-17T06:42:22.607Z,14.71
2023-05-17T06:43:25.506Z,14.70
2023-05-17T06:44:28.541Z,14.67
2023-05-17T06:45:31.304Z,14.66
2023-05-17T06:46:34.118Z,14.71
2023-05-17T06:47:37.206Z,14.71
2023-05-17T06:48:40.271Z,14.71
2023-05-17T06:49:43.749Z,14.75
2023-05-17T06:50:46.611Z,14.78
2023-05-17T06:51:49.378Z,14.81
2023-05-17T06:52:52.114Z,14.85
2023-05-17T06:53:55.019Z,14.89
2023-05-17T06:54:57.919Z,14.96
2023-05-17T06:56:00.604Z,15.02
2023-05-17T06:57:03.456Z,15.07
2023-05-17T06:58:06.406Z,15.06
2023-05-17T06:59:09.276Z,15.09
2023-05-17T07:00:13.172Z,15.11
2023-05-17T07:01:17.085Z,15.10
2023-05-17T07:02:20.173Z,15.11
2023-05-17T07:03:23.087Z,15.14
2023-05-17T07:04:26.954Z,15.19
2023-05-17T07:05:31.106Z,15.23
2023-05-17T07:06:34.148Z,15.30
2023-05-17T07:07:37.015Z,15.37
2023-05-17T07:08:40.570Z,15.38
2023-05-17T07:09:43.360Z,15.47
2023-05-17T07:10:46.250Z,15.51
2023-05-17T07:11:48.980Z,15.55
2023-05-17T07:12:52.291Z,15.55
2023-05-17T07:13:55.097Z,15.57
2023-05-17T07:14:58.060Z,15.57
2023-05-17T07:16:00.841Z,15.57
2023-05-17T07:17:03.687Z,15.55
2023-05-17T07:18:06.668Z,15.51
2023-05-17T07:19:09.746Z,15.46
2023-05-17T07:20:13.105Z,15.48
2023-05-17T07:21:16.267Z,15.50
2023-05-17T07:22:19.432Z,15.49
2023-05-17T07:23:22.157Z,15.50
2023-05-17T07:24:24.976Z,15.45
2023-05-17T07:25:28.029Z,15.40
2023-05-17T07:26:31.832Z,15.36
2023-05-17T07:27:34.594Z,15.35
2023-05-17T07:28:37.637Z,15.37
2023-05-17T07:29:42.342Z,15.38
2023-05-17T07:30:45.145Z,15.36
2023-05-17T07:31:47.888Z,15.37
2023-05-17T07:32:50.771Z,15.34
2023-05-17T07:33:53.692Z,15.35
2023-05-17T07:34:56.599Z,15.38
2023-05-17T07:35:59.536Z,15.42
2023-05-17T07:37:02.964Z,15.42
2023-05-17T07:38:05.947Z,15.45
2023-05-17T07:39:09.252Z,15.47
2023-05-17T07:40:12.407Z,15.49
2023-05-17T07:41:17.092Z,15.52
2023-05-17T07:42:19.904Z,15.51
2023-05-17T07:43:22.688Z,15.51
2023-05-17T07:44:25.808Z,15.54
2023-05-17T07:45:29.001Z,15.56
2023-05-17T07:46:31.996Z,15.61
2023-05-17T07:47:34.969Z,15.65
2023-05-17T07:48:37.956Z,15.66
2023-05-17T07:49:40.760Z,15.68
2023-05-17T07:50:44.458Z,15.66
2023-05-17T07:51:47.916Z,15.67
2023-05-17T07:52:50.985Z,15.67
2023-05-17T07:53:53.718Z,15.66
2023-05-17T07:54:56.531Z,15.63
2023-05-17T07:55:59.257Z,15.61
2023-05-17T07:57:02.183Z,15.60
2023-05-17T07:58:05.143Z,15.59
2023-05-17T07:59:08.093Z,15.57
2023-05-17T08:00:12.756Z,15.61
2023-05-17T08:01:15.761Z,15.64
2023-05-17T08:02:18.608Z,15.65
2023-05-17T08:03:21.446Z,15.66
2023-05-17T08:04:24.460Z,15.69
2023-05-17T08:05:27.814Z,15.70
2023-05-17T08:06:30.792Z,15.73
2023-05-17T08:07:33.516Z,15.76
2023-05-17T08:08:36.434Z,15.75
2023-05-17T08:09:40.528Z,15.76
2023-05-17T08:10:43.322Z,15.79
2023-05-17T08:11:46.298Z,15.82
2023-05-17T08:12:49.059Z,15.83
2023-05-17T08:13:51.946Z,15.85
2023-05-17T08:14:54.730Z,15.88
2023-05-17T08:16:12.630Z,15.89
2023-05-17T08:17:16.183Z,15.93
2023-05-17T08:18:19.159Z,15.93
2023-05-17T08:19:22.436Z,15.92
2023-05-17T08:20:25.415Z,15.93
2023-05-17T08:21:28.272Z,15.97
2023-05-17T08:22:31.024Z,15.98
2023-05-17T08:23:33.893Z,15.94
2023-05-17T08:24:36.671Z,15.90
2023-05-17T08:25:39.523Z,15.87
2023-05-17T08:26:42.470Z,15.82
2023-05-17T08:27:45.426Z,15.81
2023-05-17T08:28:48.122Z,15.80
2023-05-17T08:29:51.861Z,15.79
2023-05-17T08:30:54.633Z,15.82
2023-05-17T08:32:00.693Z,15.84
2023-05-17T08:33:03.521Z,15.87
2023-05-17T08:34:06.531Z,15.86
2023-05-17T08:35:09.415Z,15.85
2023-05-17T08:36:12.494Z,15.82
2023-05-17T08:37:15.733Z,15.75
2023-05-17T08:38:20.654Z,15.62
2023-05-17T08:39:23.670Z,15.47
2023-05-17T08:40:27.551Z,15.35
2023-05-17T08:41:31.209Z,15.29
2023-05-17T08:42:34.964Z,15.31
2023-05-17T08:43:38.048Z,15.33
2023-05-17T08:44:41.114Z,15.35
2023-05-17T08:45:43.892Z,15.38
2023-05-17T08:46:53.364Z,15.41
2023-05-17T08:47:56.296Z,15.44
2023-05-17T08:49:02.185Z,15.47
2023-05-17T08:50:06.182Z,15.50
2023-05-17T08:51:12.190Z,15.53
2023-05-17T08:52:15.380Z,15.55
2023-05-17T08:53:18.612Z,15.53
2023-05-17T08:54:22.436Z,15.52
2023-05-17T08:55:26.400Z,15.48
2023-05-17T08:56:31.141Z,15.42
2023-05-17T08:57:36.543Z,15.34
2023-05-17T08:58:55.510Z,15.25
2023-05-17T09:00:19.197Z,15.24
2023-05-17T09:01:23.612Z,15.34
2023-05-17T09:02:30.023Z,15.43
2023-05-17T09:03:35.278Z,15.51
2023-05-17T09:04:38.370Z,15.57
2023-05-17T09:05:41.828Z,15.61
2023-05-17T09:06:44.821Z,15.63
2023-05-17T09:07:48.814Z,15.65
2023-05-17T09:08:55.246Z,15.68
2023-05-17T09:09:58.536Z,15.69
2023-05-17T09:11:01.355Z,15.72
2023-05-17T09:12:04.467Z,15.72
2023-05-17T09:13:07.542Z,15.77
2023-05-17T09:14:10.525Z,15.82
2023-05-17T09:15:20.939Z,15.90
2023-05-17T09:16:23.741Z,16.02
2023-05-17T09:17:27.339Z,16.12
2023-05-17T09:18:33.967Z,16.19
2023-05-17T09:19:43.193Z,16.29
2023-05-17T09:20:50.306Z,16.37
2023-05-17T09:21:56.088Z,16.41
2023-05-17T09:22:59.401Z,16.47
2023-05-17T09:24:07.232Z,16.50
2023-05-17T09:25:11.653Z,16.52
2023-05-17T09:26:14.464Z,16.51
2023-05-17T09:27:18.437Z,16.49
2023-05-17T09:28:21.329Z,16.42
2023-05-17T09:29:24.083Z,16.33
2023-05-17T09:30:27.825Z,16.23
2023-05-17T09:31:31.598Z,16.13
2023-05-17T09:32:34.575Z,16.05
2023-05-17T09:33:46.859Z,15.99
2023-05-17T09:34:51.104Z,15.95
2023-05-17T09:35:54.084Z,15.99
2023-05-17T09:36:56.826Z,16.06
2023-05-17T09:38:18.015Z,16.16
2023-05-17T09:39:20.752Z,16.23
2023-05-17T09:40:24.870Z,16.23
2023-05-17T09:41:28.380Z,16.21
2023-05-17T09:42:32.990Z,16.16
2023-05-17T09:43:35.765Z,16.09
2023-05-17T09:44:48.653Z,16.00
2023-05-17T09:45:58.077Z,15.91
2023-05-17T09:47:01.100Z,15.85
2023-05-17T09:48:13.766Z,15.82
2023-05-17T09:49:17.538Z,15.85
2023-05-17T09:50:21.712Z,15.92
2023-05-17T09:51:41.724Z,16.00
2023-05-17T09:52:44.554Z,16.02
2023-05-17T09:53:54.128Z,16.00
2023-05-17T09:54:58.295Z,15.97
2023-05-17T09:56:01.865Z,15.94
2023-05-17T09:57:07.821Z,15.92
2023-05-17T09:58:10.553Z,15.98
2023-05-17T09:59:14.700Z,16.09
2023-05-17T10:00:19.648Z,16.21
2023-05-17T10:01:25.634Z,16.30
2023-05-17T10:02:29.359Z,16.35
2023-05-17T10:03:33.373Z,16.40
2023-05-17T10:04:37.702Z,16.51
2023-05-17T10:05:43.776Z,16.59
2023-05-17T10:06:51.373Z,16.70
2023-05-17T10:07:56.390Z,16.76
2023-05-17T10:09:00.853Z,16.75
2023-05-17T10:10:04.043Z,16.74
2023-05-17T10:11:10.642Z,16.72
2023-05-17T10:12:17.335Z,16.72
2023-05-17T10:13:25.785Z,16.72
2023-05-17T10:14:31.928Z,16.74
2023-05-17T10:15:35.655Z,16.73
2023-05-17T10:16:38.935Z,16.73
2023-05-17T10:17:43.937Z,16.72
2023-05-17T10:18:49.391Z,16.72
2023-05-17T10:19:52.722Z,16.70
2023-05-17T10:20:56.309Z,16.71
2023-05-17T10:22:11.012Z,16.71
2023-05-17T10:23:22.522Z,16.69
2023-05-17T10:24:26.911Z,16.68
2023-05-17T10:25:30.602Z,16.66
2023-05-17T10:26:34.044Z,16.65
2023-05-17T10:27:36.861Z,16.65
2023-05-17T10:28:39.687Z,16.66
2023-05-17T10:29:43.484Z,16.68
2023-05-17T10:30:47.461Z,16.69
2023-05-17T10:31:53.565Z,16.69
2023-05-17T10:32:56.925Z,16.69
2023-05-17T10:34:03.455Z,16.68
2023-05-17T10:35:11.980Z,16.66
2023-05-17T10:36:17.341Z,16.64
2023-05-17T10:37:21.665Z,16.63
2023-05-17T10:38:32.053Z,16.63
2023-05-17T10:39:43.694Z,16.63
2023-05-17T10:40:47.302Z,16.61
2023-05-17T10:41:53.019Z,16.59
2023-05-17T10:42:56.576Z,16.57
2023-05-17T10:43:59.808Z,16.58
2023-05-17T10:45:02.614Z,16.63
2023-05-17T10:46:11.968Z,16.55
2023-05-17T10:47:15.405Z,16.49
2023-05-17T10:48:18.353Z,16.45
2023-05-17T10:49:24.681Z,16.42
2023-05-17T10:50:28.249Z,16.38
2023-05-17T10:51:35.588Z,16.34
2023-05-17T10:52:38.973Z,16.30
2023-05-17T10:54:01.633Z,16.27
2023-05-17T10:55:04.764Z,16.25
2023-05-17T10:56:07.543Z,16.26
2023-05-17T10:57:19.448Z,16.30
2023-05-17T10:58:26.166Z,16.35
2023-05-17T10:59:29.831Z,16.41
2023-05-17T11:00:38.439Z,16.42
2023-05-17T11:01:52.611Z,16.45
2023-05-17T11:03:11.422Z,16.48
2023-05-17T11:04:40.177Z,16.50
2023-05-17T11:05:44.904Z,16.56
2023-05-17T11:06:47.936Z,16.62
2023-05-17T11:07:50.846Z,16.68
2023-05-17T11:09:13.955Z,16.71
2023-05-17T11:10:17.930Z,16.73
2023-05-17T11:11:20.780Z,16.74
2023-05-17T11:12:28.493Z,16.75
2023-05-17T11:13:31.400Z,16.77
2023-05-17T11:14:46.394Z,16.82
2023-05-17T11:16:02.890Z,16.91
2023-05-17T11:17:12.477Z,17.00
2023-05-17T11:18:26.598Z,17.09
2023-05-17T11:19:33.691Z,17.19
2023-05-17T11:20:37.134Z,17.27
2023-05-17T11:21:47.163Z,17.36
2023-05-17T11:23:01.696Z,17.44
2023-05-17T11:24:05.431Z,17.50
2023-05-17T11:25:12.333Z,17.55
2023-05-17T11:26:22.241Z,17.58
2023-05-17T11:27:31.295Z,17.63
2023-05-17T11:28:35.685Z,17.68
2023-05-17T11:29:40.187Z,17.80
2023-05-17T11:30:44.016Z,17.84
2023-05-17T11:31:51.356Z,17.82
2023-05-17T11:32:55.102Z,17.81
2023-05-17T11:33:58.384Z,17.80
2023-05-17T11:35:01.356Z,17.81
2023-05-17T11:36:06.358Z,17.87
2023-05-17T11:37:12.166Z,17.93
2023-05-17T11:38:19.537Z,17.99
2023-05-17T11:39:23.332Z,18.03
2023-05-17T11:40:29.772Z,18.09
2023-05-17T11:41:36.852Z,18.13
2023-05-17T11:42:39.842Z,18.16
2023-05-17T11:43:45.289Z,18.21
2023-05-17T11:44:48.200Z,18.29
2023-05-17T11:45:54.820Z,18.40
2023-05-17T11:47:09.673Z,18.49
2023-05-17T11:48:13.654Z,18.61
2023-05-17T11:49:23.607Z,18.73
2023-05-17T11:50:37.632Z,18.93
2023-05-17T11:51:41.310Z,19.09
2023-05-17T11:52:44.118Z,19.20
2023-05-17T11:53:48.704Z,19.29
2023-05-17T11:54:52.230Z,19.41
2023-05-17T11:55:56.035Z,19.46
2023-05-17T11:57:03.730Z,19.49
2023-05-17T11:58:10.444Z,19.55
2023-05-17T11:59:18.685Z,19.66
2023-05-17T12:00:27.166Z,19.86
2023-05-17T12:01:42.101Z,20.02
2023-05-17T12:02:44.906Z,20.10
2023-05-17T12:03:55.376Z,20.19
2023-05-17T12:04:58.436Z,20.32
2023-05-17T12:06:03.112Z,20.43
2023-05-17T12:07:08.959Z,20.51
2023-05-17T12:08:11.934Z,20.56
2023-05-17T12:09:17.648Z,20.62
2023-05-17T12:10:21.826Z,20.73
2023-05-17T12:11:25.816Z,20.82
2023-05-17T12:12:28.603Z,20.93
2023-05-17T12:13:32.483Z,21.09
2023-05-17T12:14:35.366Z,21.32
2023-05-17T12:15:38.291Z,21.51
2023-05-17T12:16:43.018Z,21.68
2023-05-17T12:17:47.762Z,21.79
2023-05-17T12:18:52.248Z,21.87
2023-05-17T12:19:55.490Z,22.03
2023-05-17T12:20:59.134Z,22.17
2023-05-17T12:22:08.783Z,22.29
2023-05-17T12:23:11.515Z,22.35
2023-05-17T12:24:14.506Z,22.36
2023-05-17T12:25:23.491Z,22.38
2023-05-17T12:26:26.253Z,22.39
2023-05-17T12:27:29.200Z,22.48
2023-05-17T12:28:32.113Z,22.61
2023-05-17T12:29:34.964Z,22.78
2023-05-17T12:30:37.732Z,22.95
2023-05-17T12:31:42.365Z,23.10
2023-05-17T12:32:46.668Z,23.20
2023-05-17T12:33:50.785Z,23.34
2023-05-17T12:34:54.091Z,23.49
2023-05-17T12:35:57.133Z,23.60
2023-05-17T12:36:59.912Z,23.64
2023-05-17T12:38:02.739Z,23.72
2023-05-17T12:39:09.926Z,23.80
2023-05-17T12:40:13.151Z,23.94
2023-05-17T12:41:16.769Z,24.10
2023-05-17T12:42:19.520Z,24.28
2023-05-17T12:43:24.335Z,24.44
2023-05-17T12:44:27.191Z,24.58
2023-05-17T12:45:29.963Z,24.77
2023-05-17T12:46:32.881Z,24.95
2023-05-17T12:47:35.924Z,25.14
2023-05-17T12:48:41.078Z,25.35
2023-05-17T12:49:56.178Z,25.46
2023-05-17T12:51:05.348Z,25.52
2023-05-17T12:52:08.189Z,25.54
2023-05-17T12:53:11.099Z,25.54
2023-05-17T12:54:26.475Z,25.51
2023-05-17T12:55:35.991Z,25.51
2023-05-17T12:56:41.628Z,25.62
2023-05-17T12:57:54.506Z,25.71
2023-05-17T12:59:04.875Z,25.75
2023-05-17T13:00:08.085Z,25.80
2023-05-17T13:01:14.424Z,25.90
2023-05-17T13:02:18.896Z,25.97
2023-05-17T13:03:22.068Z,26.07
2023-05-17T13:04:31.976Z,26.14
2023-05-17T13:05:35.086Z,26.32
2023-05-17T13:06:45.282Z,26.61
2023-05-17T13:07:48.285Z,26.36
2023-05-17T13:09:00.957Z,26.00
2023-05-17T13:10:03.757Z,25.87
2023-05-17T13:11:07.217Z,25.77
2023-05-17T13:12:09.952Z,25.76
2023-05-17T13:13:18.707Z,25.82
2023-05-17T13:14:38.168Z,26.40
2023-05-17T13:15:41.038Z,26.27
2023-05-17T13:16:43.856Z,26.14
2023-05-17T13:17:50.279Z,26.09
2023-05-17T13:18:53.461Z,26.10
2023-05-17T13:19:57.945Z,26.10
2023-05-17T13:21:01.667Z,26.11
2023-05-17T13:22:04.985Z,26.08
2023-05-17T13:23:07.928Z,26.07
2023-05-17T13:24:11.119Z,26.15
2023-05-17T13:25:15.724Z,26.27
2023-05-17T13:26:18.983Z,26.33
2023-05-17T13:27:21.827Z,26.47
2023-05-17T13:28:25.620Z,26.56
2023-05-17T13:29:39.399Z,26.56
2023-05-17T13:30:49.892Z,26.57
2023-05-17T13:31:52.621Z,26.55
2023-05-17T13:32:56.455Z,26.52
2023-05-17T13:33:59.481Z,26.51
2023-05-17T13:35:02.501Z,26.52
2023-05-17T13:36:05.499Z,26.51
2023-05-17T13:37:11.574Z,26.50
2023-05-17T13:38:15.250Z,26.58
2023-05-17T13:39:18.115Z,26.53
2023-05-17T13:40:21.122Z,26.54
2023-05-17T13:41:23.984Z,26.51
2023-05-17T13:42:26.817Z,26.44
2023-05-17T13:43:29.575Z,26.39
2023-05-17T13:44:32.353Z,26.38
2023-05-17T13:45:35.544Z,26.46
2023-05-17T13:46:38.424Z,26.53
2023-05-17T13:47:41.512Z,26.58
2023-05-17T13:48:44.462Z,26.57
2023-05-17T13:49:47.334Z,26.57
2023-05-17T13:50:50.994Z,26.53
2023-05-17T13:51:53.804Z,26.45
2023-05-17T13:52:56.693Z,26.49
2023-05-17T13:53:59.466Z,26.46
2023-05-17T13:55:02.345Z,26.49